createdAt,value
2019-05-06T00:00:35.288Z,90.4601
2019-05-06T00:01:38.307Z,90.4540
2019-05-06T00:02:43.448Z,90.3487
2019-05-06T00:03:47.293Z,90.7027
2019-05-06T00:04:51.287Z,90.7103
2019-05-06T00:05:54.466Z,90.7485
2019-05-06T00:06:58.275Z,90.4417
2019-05-06T00:08:03.897Z,89.6758
2019-05-06T00:09:07.289Z,89.5308
2019-05-06T00:10:13.392Z,88.8884
2019-05-06T00:11:16.303Z,88.6564
2019-05-06T00:12:20.286Z,88.7327
2019-05-06T00:13:24.147Z,87.9744
2019-05-06T00:14:27.266Z,88.4367
2019-05-06T00:15:31.277Z,89.1310
2019-05-06T00:16:34.906Z,89.9413
2019-05-06T00:17:38.325Z,90.6569
2019-05-06T00:18:41.306Z,91.2978
2019-05-06T00:19:45.317Z,91.6487
2019-05-06T00:20:48.248Z,92.3781
2019-05-06T00:21:51.281Z,92.4651
2019-05-06T00:22:55.275Z,92.3400
2019-05-06T00:23:58.286Z,92.0974
2019-05-06T00:25:02.297Z,92.1019
2019-05-06T00:26:05.283Z,91.7128
2019-05-06T00:27:09.302Z,91.4427
2019-05-06T00:28:13.657Z,91.2062
2019-05-06T00:29:17.317Z,90.7835
2019-05-06T00:30:21.288Z,90.9407
2019-05-06T00:31:24.285Z,90.9438
2019-05-06T00:32:28.290Z,90.9255
2019-05-06T00:33:31.292Z,91.4427
2019-05-06T00:34:35.337Z,91.8456
2019-05-06T00:35:38.294Z,91.6899
2019-05-06T00:36:43.285Z,91.9738
2019-05-06T00:37:47.295Z,91.7632
2019-05-06T00:38:50.302Z,91.4153
2019-05-06T00:39:54.320Z,91.3527
2019-05-06T00:40:57.307Z,91.0491
2019-05-06T00:42:01.324Z,90.3685
2019-05-06T00:43:04.818Z,90.5272
2019-05-06T00:44:08.317Z,90.8888
2019-05-06T00:45:13.592Z,91.0491
2019-05-06T00:46:16.285Z,91.3161
2019-05-06T00:47:20.286Z,90.7210
2019-05-06T00:48:24.435Z,88.8609
2019-05-06T00:49:28.267Z,88.4810
2019-05-06T00:50:31.295Z,87.5837
2019-05-06T00:51:34.300Z,86.6682
2019-05-06T00:52:38.308Z,85.8549
2019-05-06T00:53:41.265Z,86.3676
2019-05-06T00:54:45.267Z,85.9373
2019-05-06T00:55:48.335Z,87.6265
2019-05-06T00:56:51.280Z,86.2257
2019-05-06T00:57:54.540Z,86.5644
2019-05-06T00:58:58.283Z,87.0253
2019-05-06T01:00:04.168Z,87.1916
2019-05-06T01:01:07.303Z,87.9744
2019-05-06T01:02:11.294Z,89.5262
2019-05-06T01:03:14.298Z,90.1030
2019-05-06T01:04:18.316Z,90.7149
2019-05-06T01:05:21.285Z,90.9117
2019-05-06T01:06:24.660Z,90.9819
2019-05-06T01:07:28.297Z,90.7469
2019-05-06T01:08:31.286Z,90.8812
2019-05-06T01:09:35.317Z,91.0597
2019-05-06T01:10:38.301Z,91.0994
2019-05-06T01:11:42.316Z,91.2642
2019-05-06T01:12:47.279Z,91.0628
2019-05-06T01:13:50.310Z,91.2001
2019-05-06T01:14:54.626Z,91.2917
2019-05-06T01:15:58.275Z,91.2413
2019-05-06T01:17:01.334Z,91.5175
2019-05-06T01:18:04.362Z,91.2230
2019-05-06T01:19:08.288Z,91.1269
2019-05-06T01:20:11.261Z,91.0903
2019-05-06T01:21:14.667Z,91.2154
2019-05-06T01:22:18.306Z,90.7515
2019-05-06T01:23:23.379Z,90.9712
2019-05-06T01:24:27.265Z,90.8217
2019-05-06T01:25:30.291Z,88.8014
2019-05-06T01:26:34.339Z,88.6473
2019-05-06T01:27:37.278Z,88.1071
2019-05-06T01:28:40.296Z,87.6936
2019-05-06T01:29:44.288Z,87.1122
2019-05-06T01:30:47.311Z,85.2598
2019-05-06T01:31:51.337Z,85.7755
2019-05-06T01:32:54.488Z,85.3559
2019-05-06T01:33:58.288Z,85.4109
2019-05-06T01:35:00.271Z,85.4276
2019-05-06T01:36:04.537Z,85.3147
2019-05-06T01:37:07.320Z,84.9851
2019-05-06T01:38:10.279Z,84.7150
2019-05-06T01:39:14.298Z,84.5624
2019-05-06T01:40:17.307Z,84.3702
2019-05-06T01:41:21.265Z,83.7110
2019-05-06T01:42:24.656Z,83.6469
2019-05-06T01:43:27.286Z,83.8361
2019-05-06T01:44:30.425Z,83.0655
2019-05-06T01:45:34.874Z,82.7009
2019-05-06T01:46:38.320Z,82.6398
2019-05-06T01:47:41.300Z,83.0762
2019-05-06T01:48:45.289Z,83.1159
2019-05-06T01:49:48.288Z,82.7558
2019-05-06T01:50:51.299Z,82.9511
2019-05-06T01:51:55.294Z,82.9786
2019-05-06T01:52:58.312Z,82.9847
2019-05-06T01:54:03.752Z,82.6535
2019-05-06T01:55:07.286Z,82.9160
2019-05-06T01:56:11.304Z,84.3610
2019-05-06T01:57:14.274Z,83.6210
2019-05-06T01:58:17.350Z,83.9857
2019-05-06T01:59:21.272Z,83.9445
2019-05-06T02:00:24.294Z,83.3417
2019-05-06T02:01:28.283Z,83.4409
2019-05-06T02:02:31.303Z,83.3631
2019-05-06T02:03:35.328Z,82.6993
2019-05-06T02:04:38.292Z,82.9892
2019-05-06T02:05:41.270Z,82.9603
2019-05-06T02:06:45.290Z,82.7192
2019-05-06T02:07:48.256Z,81.7380
2019-05-06T02:08:53.994Z,82.7421
2019-05-06T02:09:57.310Z,81.9348
2019-05-06T02:11:01.305Z,82.5483
2019-05-06T02:12:04.678Z,82.6123
2019-05-06T02:13:08.325Z,82.6169
2019-05-06T02:14:13.994Z,82.7146
2019-05-06T02:15:16.291Z,82.8367
2019-05-06T02:16:20.275Z,82.8321
2019-05-06T02:17:23.875Z,83.9353
2019-05-06T02:18:27.311Z,84.5075
2019-05-06T02:19:30.269Z,84.8646
2019-05-06T02:20:33.980Z,84.5823
2019-05-06T02:21:37.270Z,84.9699
2019-05-06T02:22:40.304Z,84.7089
2019-05-06T02:23:44.298Z,84.1550
2019-05-06T02:24:47.297Z,83.7400
2019-05-06T02:25:51.261Z,83.9094
2019-05-06T02:26:54.467Z,83.7400
2019-05-06T02:27:57.304Z,85.2354
2019-05-06T02:29:04.238Z,85.6397
2019-05-06T02:30:07.282Z,85.5573
2019-05-06T02:31:11.298Z,86.2257
2019-05-06T02:32:25.528Z,87.5792
2019-05-06T02:33:24.733Z,88.7098
2019-05-06T02:34:28.357Z,89.0623
2019-05-06T02:35:31.283Z,89.6208
2019-05-06T02:36:35.303Z,90.2205
2019-05-06T02:37:38.265Z,90.2342
2019-05-06T02:38:50.472Z,90.1808
2019-05-06T02:39:53.135Z,90.1030
2019-05-06T02:40:57.262Z,89.8009
2019-05-06T02:42:00.298Z,89.7993
2019-05-06T02:43:04.274Z,89.5583
2019-05-06T02:44:10.250Z,89.4286
2019-05-06T02:45:15.324Z,88.8945
2019-05-06T02:46:19.291Z,88.8701
2019-05-06T02:47:23.012Z,89.0867
2019-05-06T02:48:27.293Z,89.4514
2019-05-06T02:49:32.795Z,89.3462
2019-05-06T02:50:36.299Z,89.1279
2019-05-06T02:51:40.308Z,89.2683
2019-05-06T02:52:44.049Z,89.3507
2019-05-06T02:53:48.295Z,90.0282
2019-05-06T02:54:53.691Z,90.4875
2019-05-06T02:55:57.317Z,90.5287
2019-05-06T02:57:00.265Z,90.3716
2019-05-06T02:58:03.338Z,90.0755
2019-05-06T02:59:07.271Z,89.8497
2019-05-06T03:00:13.085Z,89.8924
2019-05-06T03:01:17.318Z,89.8970
2019-05-06T03:02:35.593Z,90.0557
2019-05-06T03:03:28.287Z,90.2296
2019-05-06T03:04:33.189Z,90.3166
2019-05-06T03:05:36.318Z,90.2678
2019-05-06T03:06:40.306Z,90.4875
2019-05-06T03:07:43.732Z,90.3456
2019-05-06T03:08:47.289Z,90.3960
2019-05-06T03:09:53.173Z,90.4677
2019-05-06T03:10:57.337Z,90.2678
2019-05-06T03:12:03.341Z,90.4829
2019-05-06T03:13:07.299Z,90.5425
2019-05-06T03:14:13.954Z,90.4234
2019-05-06T03:15:17.331Z,90.8629
2019-05-06T03:16:23.764Z,90.8949
2019-05-06T03:17:27.296Z,91.0857
2019-05-06T03:18:32.765Z,91.2749
2019-05-06T03:19:36.285Z,91.3161
2019-05-06T03:20:39.300Z,91.4168
2019-05-06T03:21:44.817Z,91.7784
2019-05-06T03:22:48.291Z,91.8792
2019-05-06T03:23:54.290Z,92.1752
2019-05-06T03:24:57.301Z,92.3506
2019-05-06T03:26:03.732Z,92.5826
2019-05-06T03:27:09.286Z,92.3278
2019-05-06T03:28:13.258Z,92.4681
2019-05-06T03:29:17.287Z,92.5658
2019-05-06T03:30:25.065Z,92.6787
2019-05-06T03:31:28.360Z,92.8359
2019-05-06T03:32:37.568Z,93.0175
2019-05-06T03:33:56.904Z,93.2479
2019-05-06T03:35:07.810Z,93.2555
2019-05-06T03:36:06.126Z,93.5714
2019-05-06T03:37:07.204Z,93.6309
2019-05-06T03:38:13.752Z,93.7835
2019-05-06T03:39:17.282Z,93.9757
2019-05-06T03:40:22.965Z,93.9925
2019-05-06T03:41:26.664Z,93.9300
2019-05-06T03:42:33.288Z,94.0795
2019-05-06T03:43:36.279Z,93.9010
2019-05-06T03:44:40.301Z,93.8888
2019-05-06T03:45:43.292Z,93.7972
2019-05-06T03:46:47.287Z,93.5317
2019-05-06T03:47:50.306Z,93.4127
2019-05-06T03:48:54.297Z,93.5271
2019-05-06T03:49:57.281Z,93.2799
2019-05-06T03:51:00.302Z,93.2799
2019-05-06T03:52:04.300Z,93.3608
2019-05-06T03:53:07.330Z,93.4173
2019-05-06T03:54:12.784Z,93.5164
2019-05-06T03:55:16.275Z,93.6996
2019-05-06T03:56:23.821Z,93.6095
2019-05-06T03:57:27.272Z,93.1930
2019-05-06T03:58:29.342Z,93.3074
2019-05-06T03:59:33.787Z,93.4112
2019-05-06T04:00:37.284Z,93.2509
2019-05-06T04:01:42.834Z,92.9641
2019-05-06T04:02:45.424Z,92.7703
2019-05-06T04:03:53.717Z,92.7840
2019-05-06T04:04:57.281Z,92.8725
2019-05-06T04:06:00.371Z,92.5139
2019-05-06T04:07:04.286Z,92.6329
2019-05-06T04:08:07.309Z,92.2118
2019-05-06T04:09:13.221Z,91.8425
2019-05-06T04:10:16.346Z,92.0012
2019-05-06T04:11:22.667Z,92.1813
2019-05-06T04:12:25.309Z,92.2774
2019-05-06T04:13:28.341Z,92.3583
2019-05-06T04:14:33.785Z,92.3369
2019-05-06T04:15:37.272Z,92.3033
2019-05-06T04:16:44.123Z,92.4147
2019-05-06T04:17:47.281Z,92.6436
2019-05-06T04:18:53.741Z,92.9992
2019-05-06T04:19:57.344Z,92.8222
2019-05-06T04:21:03.595Z,92.2545
2019-05-06T04:22:07.296Z,92.2545
2019-05-06T04:23:12.977Z,92.2896
2019-05-06T04:24:17.290Z,92.3919
2019-05-06T04:25:23.177Z,92.6711
2019-05-06T04:26:27.296Z,92.6665
2019-05-06T04:27:33.278Z,92.9076
2019-05-06T04:28:37.308Z,92.7520
2019-05-06T04:29:42.794Z,92.8450
2019-05-06T04:30:46.317Z,92.7581
2019-05-06T04:31:50.326Z,92.4926
2019-05-06T04:32:53.567Z,92.5063
2019-05-06T04:34:09.982Z,91.7952
2019-05-06T04:35:05.300Z,91.5846
2019-05-06T04:36:08.342Z,91.9478
2019-05-06T04:37:14.463Z,91.9570
2019-05-06T04:38:18.303Z,92.1035
2019-05-06T04:39:23.387Z,92.3812
2019-05-06T04:40:27.307Z,92.6482
2019-05-06T04:41:34.135Z,92.8908
2019-05-06T04:42:37.262Z,92.7764
2019-05-06T04:43:40.319Z,92.5292
2019-05-06T04:44:44.289Z,92.3445
2019-05-06T04:45:47.289Z,91.9936
2019-05-06T04:46:54.087Z,92.3415
2019-05-06T04:47:57.297Z,92.3049
2019-05-06T04:49:03.834Z,92.2759
2019-05-06T04:50:07.286Z,92.3690
2019-05-06T04:51:13.390Z,92.2301
2019-05-06T04:52:17.351Z,91.9509
2019-05-06T04:53:26.474Z,91.5801
2019-05-06T04:54:28.283Z,91.5480
2019-05-06T04:55:33.619Z,91.5038
2019-05-06T04:56:37.315Z,91.4214
2019-05-06T04:57:40.344Z,91.3069
2019-05-06T04:58:43.289Z,91.4443
2019-05-06T04:59:47.330Z,90.9224
2019-05-06T05:00:52.810Z,91.0628
2019-05-06T05:01:57.346Z,90.9407
2019-05-06T05:02:59.319Z,90.8263
2019-05-06T05:04:03.679Z,90.7195
2019-05-06T05:05:06.366Z,90.3944
2019-05-06T05:06:09.280Z,90.1350
2019-05-06T05:07:13.310Z,90.0847
2019-05-06T05:08:16.317Z,89.6681
2019-05-06T05:09:22.865Z,89.2790
2019-05-06T05:10:26.274Z,89.5979
2019-05-06T05:11:33.091Z,89.4713
2019-05-06T05:12:36.309Z,89.4194
2019-05-06T05:13:39.306Z,89.5125
2019-05-06T05:14:43.284Z,89.5491
2019-05-06T05:15:46.306Z,89.3843
2019-05-06T05:16:50.304Z,89.1691
2019-05-06T05:17:53.324Z,89.1585
2019-05-06T05:18:57.298Z,88.9067
2019-05-06T05:20:02.107Z,88.7434
2019-05-06T05:21:05.313Z,88.5954
2019-05-06T05:22:09.276Z,88.4230
2019-05-06T05:23:12.378Z,88.6061
2019-05-06T05:24:16.303Z,88.7556
2019-05-06T05:25:19.309Z,88.7556
2019-05-06T05:26:23.302Z,88.6412
2019-05-06T05:27:26.273Z,88.6549
2019-05-06T05:28:29.346Z,88.5374
2019-05-06T05:29:33.292Z,88.7968
2019-05-06T05:30:36.340Z,88.7602
2019-05-06T05:31:40.306Z,88.6839
2019-05-06T05:32:43.334Z,88.0934
2019-05-06T05:33:47.311Z,87.2038
2019-05-06T05:34:52.094Z,87.3335
2019-05-06T05:35:54.311Z,87.3472
2019-05-06T05:36:58.283Z,86.3905
2019-05-06T05:38:03.049Z,86.5415
2019-05-06T05:39:07.325Z,87.7256
2019-05-06T05:40:10.324Z,87.5792
2019-05-06T05:41:14.293Z,87.8004
2019-05-06T05:42:17.298Z,87.8904
2019-05-06T05:43:20.292Z,88.3680
2019-05-06T05:44:24.341Z,89.0806
2019-05-06T05:45:28.317Z,88.7236
2019-05-06T05:46:33.016Z,87.9881
2019-05-06T05:47:36.322Z,88.1025
2019-05-06T05:48:39.369Z,87.8172
2019-05-06T05:49:42.338Z,87.4891
2019-05-06T05:50:45.296Z,87.4479
2019-05-06T05:51:49.303Z,87.0527
2019-05-06T05:52:52.297Z,87.4159
2019-05-06T05:53:56.320Z,85.8076
2019-05-06T05:55:02.576Z,86.3813
2019-05-06T05:56:06.275Z,86.0471
2019-05-06T05:57:09.296Z,84.9928
2019-05-06T05:58:12.931Z,84.2344
2019-05-06T05:59:16.313Z,83.2853
2019-05-06T06:00:19.331Z,82.6322
2019-05-06T06:01:23.414Z,81.9715
2019-05-06T06:02:26.267Z,81.0742
2019-05-06T06:03:32.020Z,79.5148
2019-05-06T06:04:36.282Z,80.1404
2019-05-06T06:05:39.411Z,81.1017
2019-05-06T06:06:43.337Z,79.6735
2019-05-06T06:07:46.352Z,79.5697
2019-05-06T06:08:52.122Z,79.6414
2019-05-06T06:09:56.298Z,79.6826
2019-05-06T06:11:00.341Z,78.9868
2019-05-06T06:12:03.301Z,78.9288
2019-05-06T06:13:06.285Z,79.3576
2019-05-06T06:14:12.569Z,79.8062
2019-05-06T06:15:16.326Z,81.0346
2019-05-06T06:16:20.324Z,79.9084
2019-05-06T06:17:23.357Z,79.7604
2019-05-06T06:18:27.311Z,79.2889
2019-05-06T06:19:30.317Z,79.3988
2019-05-06T06:20:33.324Z,78.4756
2019-05-06T06:21:37.333Z,78.4665
2019-05-06T06:22:42.449Z,78.2910
2019-05-06T06:23:46.309Z,78.4024
2019-05-06T06:24:49.337Z,77.7783
2019-05-06T06:25:53.328Z,78.0072
2019-05-06T06:26:56.326Z,77.4228
2019-05-06T06:28:02.689Z,76.6339
2019-05-06T06:29:05.338Z,76.6247
2019-05-06T06:30:08.307Z,76.0571
2019-05-06T06:31:12.337Z,76.0204
2019-05-06T06:32:14.329Z,75.7504
2019-05-06T06:33:18.293Z,75.7565
2019-05-06T06:34:22.287Z,75.6359
2019-05-06T06:35:25.316Z,74.9355
2019-05-06T06:36:29.319Z,75.2880
2019-05-06T06:37:33.214Z,75.7427
2019-05-06T06:38:37.299Z,75.5276
2019-05-06T06:39:42.274Z,75.6313
2019-05-06T06:40:46.322Z,75.0683
2019-05-06T06:41:49.258Z,75.1278
2019-05-06T06:42:52.519Z,75.0637
2019-05-06T06:43:56.296Z,74.8531
2019-05-06T06:44:59.304Z,74.7845
2019-05-06T06:46:03.341Z,74.7707
2019-05-06T06:47:06.303Z,74.1344
2019-05-06T06:48:12.224Z,73.4707
2019-05-06T06:49:15.290Z,72.5261
2019-05-06T06:50:18.334Z,72.6467
2019-05-06T06:51:23.552Z,72.5994
2019-05-06T06:52:27.317Z,73.1395
2019-05-06T06:53:32.687Z,73.9864
2019-05-06T06:54:36.327Z,73.1456
2019-05-06T06:55:39.373Z,72.5231
2019-05-06T06:56:42.401Z,71.3863
2019-05-06T06:57:45.328Z,71.4412
2019-05-06T06:58:49.286Z,70.6310
2019-05-06T06:59:52.484Z,69.9733
2019-05-06T07:00:56.284Z,69.2637
2019-05-06T07:01:59.326Z,69.0700
2019-05-06T07:03:03.295Z,70.0191
2019-05-06T07:04:10.444Z,70.2113
2019-05-06T07:05:24.353Z,70.9529
2019-05-06T07:06:22.441Z,72.2057
2019-05-06T07:07:39.532Z,72.5322
2019-05-06T07:08:37.357Z,72.4941
2019-05-06T07:09:41.905Z,73.2784
2019-05-06T07:10:45.314Z,72.5963
2019-05-06T07:11:48.313Z,70.7790
2019-05-06T07:12:50.442Z,71.6976
2019-05-06T07:13:54.298Z,72.8328
2019-05-06T07:14:57.295Z,73.5256
2019-05-06T07:16:02.983Z,73.1624
2019-05-06T07:17:06.300Z,73.2876
2019-05-06T07:18:13.291Z,72.6696
2019-05-06T07:19:17.326Z,72.7962
2019-05-06T07:20:22.869Z,73.0083
2019-05-06T07:21:26.338Z,72.2789
2019-05-06T07:22:29.291Z,72.7871
2019-05-06T07:23:33.336Z,72.6833
2019-05-06T07:24:36.294Z,72.2210
2019-05-06T07:25:42.829Z,71.6991
2019-05-06T07:26:46.285Z,71.8639
2019-05-06T07:27:48.355Z,72.0195
2019-05-06T07:28:52.737Z,72.4529
2019-05-06T07:29:56.300Z,72.4727
2019-05-06T07:31:14.882Z,72.1569
2019-05-06T07:32:08.276Z,71.4961
2019-05-06T07:33:13.340Z,72.6467
2019-05-06T07:34:17.291Z,72.9381
2019-05-06T07:35:22.410Z,72.1691
2019-05-06T07:36:27.338Z,72.2347
2019-05-06T07:37:32.627Z,72.0333
2019-05-06T07:38:36.290Z,71.1482
2019-05-06T07:39:38.272Z,71.1910
2019-05-06T07:40:42.294Z,70.9712
2019-05-06T07:41:46.140Z,71.2963
2019-05-06T07:42:49.289Z,71.0658
2019-05-06T07:43:53.310Z,68.6626
2019-05-06T07:44:56.337Z,67.3823
2019-05-06T07:46:02.460Z,68.5939
2019-05-06T07:47:06.313Z,69.6345
2019-05-06T07:48:12.647Z,70.1473
2019-05-06T07:49:16.343Z,70.2480
2019-05-06T07:50:19.268Z,68.6122
2019-05-06T07:51:23.932Z,68.6580
2019-05-06T07:52:27.358Z,68.8472
2019-05-06T07:53:32.069Z,68.8869
2019-05-06T07:54:35.276Z,67.0436
2019-05-06T07:55:39.309Z,67.3808
2019-05-06T07:56:42.843Z,66.8040
2019-05-06T07:57:46.333Z,65.5055
2019-05-06T07:58:52.762Z,65.9754
2019-05-06T07:59:56.278Z,67.2389
2019-05-06T08:01:02.667Z,67.2450
2019-05-06T08:02:06.298Z,66.8360
2019-05-06T08:03:10.349Z,67.0573
2019-05-06T08:04:14.342Z,61.8753
2019-05-06T08:05:17.301Z,62.2812
2019-05-06T08:06:22.647Z,60.9369
2019-05-06T08:07:26.294Z,61.3123
2019-05-06T08:08:30.353Z,61.6312
2019-05-06T08:09:33.315Z,63.9521
2019-05-06T08:10:37.333Z,60.9964
2019-05-06T08:11:42.155Z,60.9079
2019-05-06T08:12:45.337Z,60.3006
2019-05-06T08:13:49.319Z,60.7477
2019-05-06T08:14:52.548Z,60.2487
2019-05-06T08:15:56.330Z,61.2055
2019-05-06T08:16:58.298Z,60.4425
2019-05-06T08:18:03.485Z,61.7411
2019-05-06T08:19:07.357Z,61.9257
2019-05-06T08:20:12.721Z,60.8820
2019-05-06T08:21:16.337Z,60.6668
2019-05-06T08:22:19.312Z,61.1231
2019-05-06T08:23:23.314Z,64.4389
2019-05-06T08:24:26.346Z,62.6154
2019-05-06T08:25:32.811Z,61.4084
2019-05-06T08:26:36.255Z,61.5076
2019-05-06T08:27:39.307Z,61.1551
2019-05-06T08:28:44.520Z,60.3464
2019-05-06T08:29:48.362Z,57.4258
2019-05-06T08:30:53.122Z,58.8251
2019-05-06T08:31:56.315Z,60.0763
2019-05-06T08:33:02.242Z,59.0723
2019-05-06T08:34:05.303Z,59.5850
2019-05-06T08:35:09.972Z,59.3927
2019-05-06T08:36:14.790Z,60.7935
2019-05-06T08:37:18.301Z,60.5188
2019-05-06T08:38:22.651Z,59.6399
2019-05-06T08:39:26.312Z,53.3700
2019-05-06T08:40:32.089Z,48.6595
2019-05-06T08:41:35.327Z,45.1469
2019-05-06T08:42:38.277Z,46.3890
2019-05-06T08:43:42.331Z,48.2048
2019-05-06T08:44:45.301Z,47.6478
2019-05-06T08:45:49.384Z,45.9113
2019-05-06T08:46:53.254Z,46.0273
2019-05-06T08:47:57.292Z,51.0521
2019-05-06T08:49:00.839Z,51.5511
2019-05-06T08:50:05.305Z,52.3339
2019-05-06T08:51:09.333Z,51.9600
2019-05-06T08:52:12.997Z,51.6976
2019-05-06T08:53:16.308Z,51.6258
2019-05-06T08:54:19.311Z,53.7301
2019-05-06T08:55:23.342Z,56.4584
2019-05-06T08:56:26.324Z,55.9915
2019-05-06T08:57:29.332Z,53.8598
2019-05-06T08:58:33.334Z,52.5811
2019-05-06T08:59:36.341Z,49.6010
2019-05-06T09:00:40.291Z,49.4835
2019-05-06T09:01:43.322Z,49.4377
2019-05-06T09:02:47.307Z,52.0195
2019-05-06T09:04:05.046Z,51.2764
2019-05-06T09:04:58.301Z,51.7388
2019-05-06T09:06:03.168Z,50.9377
2019-05-06T09:07:07.338Z,50.8339
2019-05-06T09:08:13.634Z,52.9427
2019-05-06T09:09:17.369Z,53.1487
2019-05-06T09:10:22.695Z,52.4132
2019-05-06T09:11:26.292Z,50.3883
2019-05-06T09:12:29.320Z,52.5826
2019-05-06T09:13:33.358Z,51.7205
2019-05-06T09:14:36.321Z,51.9097
2019-05-06T09:15:40.307Z,51.8502
2019-05-06T09:16:43.928Z,52.4254
2019-05-06T09:17:48.335Z,53.5790
2019-05-06T09:18:53.341Z,54.6563
2019-05-06T09:19:56.321Z,54.5495
2019-05-06T09:21:02.819Z,54.7372
2019-05-06T09:22:06.302Z,53.6858
2019-05-06T09:23:12.269Z,52.1462
2019-05-06T09:24:16.277Z,51.9631
2019-05-06T09:25:20.324Z,51.6487
2019-05-06T09:26:23.301Z,51.6518
2019-05-06T09:27:26.299Z,49.6941
2019-05-06T09:28:30.347Z,50.1839
2019-05-06T09:29:33.284Z,50.1564
2019-05-06T09:30:37.328Z,49.3462
2019-05-06T09:31:39.327Z,48.1376
2019-05-06T09:32:43.315Z,48.3925
2019-05-06T09:33:46.320Z,46.8559
2019-05-06T09:34:49.283Z,46.5263
2019-05-06T09:35:53.306Z,45.9861
2019-05-06T09:36:56.323Z,47.0329
2019-05-06T09:38:02.209Z,47.9683
2019-05-06T09:39:05.328Z,48.5222
2019-05-06T09:40:09.310Z,48.0446
2019-05-06T09:41:13.342Z,48.8655
2019-05-06T09:42:16.325Z,47.8126
2019-05-06T09:43:22.282Z,48.1193
2019-05-06T09:44:26.333Z,47.4495
2019-05-06T09:45:29.309Z,48.8975
2019-05-06T09:46:32.320Z,49.9641
2019-05-06T09:47:37.273Z,49.8634
2019-05-06T09:48:42.325Z,49.5781
2019-05-06T09:49:46.309Z,50.1823
2019-05-06T09:50:50.419Z,49.1081
2019-05-06T09:51:53.325Z,50.1640
2019-05-06T09:52:57.275Z,49.1661
2019-05-06T09:54:03.742Z,48.8090
2019-05-06T09:55:07.335Z,47.6646
2019-05-06T09:56:12.965Z,46.6728
2019-05-06T09:57:16.314Z,46.7597
2019-05-06T09:58:22.733Z,43.1113
2019-05-06T09:59:26.327Z,45.4276
2019-05-06T10:00:32.694Z,45.0874
2019-05-06T10:01:36.404Z,45.6565
2019-05-06T10:02:42.858Z,46.0777
2019-05-06T10:03:46.333Z,47.2938
2019-05-06T10:04:49.284Z,46.7811
2019-05-06T10:05:55.375Z,47.0924
2019-05-06T10:07:00.103Z,46.7536
2019-05-06T10:08:04.336Z,48.4352
2019-05-06T10:09:07.293Z,48.0323
2019-05-06T10:10:11.316Z,48.4291
2019-05-06T10:11:13.343Z,44.1077
2019-05-06T10:12:16.339Z,45.1057
2019-05-06T10:13:20.308Z,47.7485
2019-05-06T10:14:23.565Z,48.1178
2019-05-06T10:15:27.349Z,48.0262
2019-05-06T10:16:32.394Z,45.6291
2019-05-06T10:17:36.313Z,47.5685
2019-05-06T10:18:39.332Z,48.6625
2019-05-06T10:19:42.886Z,46.7399
2019-05-06T10:20:47.283Z,47.1717
2019-05-06T10:21:50.347Z,47.4861
2019-05-06T10:22:54.323Z,47.1702
2019-05-06T10:23:57.314Z,48.2887
2019-05-06T10:25:03.716Z,46.8971
2019-05-06T10:26:07.303Z,45.9159
2019-05-06T10:27:12.089Z,47.0161
2019-05-06T10:28:16.297Z,47.6158
2019-05-06T10:29:19.312Z,46.6773
2019-05-06T10:30:23.311Z,46.9429
2019-05-06T10:31:26.311Z,48.1544
2019-05-06T10:32:30.318Z,47.8675
2019-05-06T10:33:33.317Z,46.7765
2019-05-06T10:34:36.294Z,47.7012
2019-05-06T10:35:42.685Z,46.2379
2019-05-06T10:36:46.336Z,46.3432
2019-05-06T10:37:52.481Z,47.3960
2019-05-06T10:38:56.325Z,46.4836
2019-05-06T10:40:02.861Z,45.9174
2019-05-06T10:41:07.604Z,46.3523
2019-05-06T10:42:13.211Z,48.2246
2019-05-06T10:43:17.337Z,47.3365
2019-05-06T10:44:22.376Z,46.4118
2019-05-06T10:45:26.305Z,47.0253
2019-05-06T10:46:28.345Z,46.6484
2019-05-06T10:47:33.054Z,48.1910
2019-05-06T10:48:36.336Z,48.1178
2019-05-06T10:49:39.347Z,48.6915
2019-05-06T10:50:43.283Z,47.1244
2019-05-06T10:51:46.351Z,45.3956
2019-05-06T10:52:51.798Z,47.4632
2019-05-06T10:53:55.279Z,45.0278
2019-05-06T10:54:59.329Z,44.6708
2019-05-06T10:56:02.447Z,46.0319
2019-05-06T10:57:05.351Z,45.6367
2019-05-06T10:58:09.269Z,46.4530
2019-05-06T10:59:12.982Z,45.9342
2019-05-06T11:00:16.346Z,45.0431
2019-05-06T11:01:19.320Z,44.1459
2019-05-06T11:02:23.373Z,44.2237
2019-05-06T11:03:27.670Z,41.9516
2019-05-06T11:04:33.144Z,43.9933
2019-05-06T11:05:37.327Z,43.5447
2019-05-06T11:06:42.833Z,43.5767
2019-05-06T11:07:46.317Z,44.9729
2019-05-06T11:08:48.325Z,44.7089
2019-05-06T11:09:53.301Z,43.5035
2019-05-06T11:10:56.359Z,42.7848
2019-05-06T11:11:59.278Z,42.2492
2019-05-06T11:13:03.489Z,43.0839
2019-05-06T11:14:07.330Z,43.3249
2019-05-06T11:15:12.409Z,44.5487
2019-05-06T11:16:17.035Z,44.9409
2019-05-06T11:17:23.264Z,46.7369
2019-05-06T11:18:27.326Z,46.5797
2019-05-06T11:19:30.278Z,45.7801
2019-05-06T11:20:34.333Z,44.6754
2019-05-06T11:21:37.311Z,46.1967
2019-05-06T11:22:43.461Z,45.2537
2019-05-06T11:23:47.347Z,43.6881
2019-05-06T11:24:51.336Z,40.0626
2019-05-06T11:25:54.270Z,41.9028
2019-05-06T11:26:57.292Z,41.6312
2019-05-06T11:28:02.969Z,42.7314
2019-05-06T11:29:06.292Z,43.0320
2019-05-06T11:30:10.308Z,43.7598
2019-05-06T11:31:14.137Z,44.0223
2019-05-06T11:32:21.049Z,44.7623
2019-05-06T11:33:24.325Z,47.1855
2019-05-06T11:34:27.294Z,46.2684
2019-05-06T11:35:32.517Z,45.6748
2019-05-06T11:36:37.631Z,45.7511
2019-05-06T11:37:46.974Z,45.3529
2019-05-06T11:38:52.149Z,45.3361
2019-05-06T11:39:56.322Z,43.1479
2019-05-06T11:40:59.319Z,45.9541
2019-05-06T11:42:23.959Z,46.2913
2019-05-06T11:43:11.962Z,45.9998
2019-05-06T11:44:15.364Z,45.9663
2019-05-06T11:45:19.290Z,45.4719
2019-05-06T11:46:22.850Z,45.4765
2019-05-06T11:47:26.288Z,47.1199
2019-05-06T11:48:29.287Z,45.7053
2019-05-06T11:49:32.748Z,46.6590
2019-05-06T11:50:36.284Z,46.3279
2019-05-06T11:51:39.339Z,45.2262
2019-05-06T11:52:43.674Z,45.6931
2019-05-06T11:53:47.304Z,46.8147
2019-05-06T11:54:52.821Z,43.5996
2019-05-06T11:55:56.330Z,47.3365
2019-05-06T11:56:59.294Z,44.6311
2019-05-06T11:58:02.706Z,44.5747
2019-05-06T11:59:06.301Z,46.3371
2019-05-06T12:00:12.504Z,46.1952
2019-05-06T12:01:16.306Z,46.7948
2019-05-06T12:02:20.297Z,45.8351
2019-05-06T12:03:23.433Z,43.0335
2019-05-06T12:04:28.301Z,45.3849
2019-05-06T12:05:33.012Z,44.1810
2019-05-06T12:06:36.367Z,42.7573
2019-05-06T12:07:40.340Z,42.6535
2019-05-06T12:08:43.370Z,43.0869
2019-05-06T12:09:47.325Z,45.0477
2019-05-06T12:10:52.018Z,46.5797
2019-05-06T12:11:55.301Z,45.6687
2019-05-06T12:12:59.330Z,39.9649
2019-05-06T12:14:02.647Z,41.8753
2019-05-06T12:15:07.162Z,41.8158
2019-05-06T12:16:13.731Z,39.9512
2019-05-06T12:17:18.326Z,39.6628
2019-05-06T12:18:23.071Z,43.1296
2019-05-06T12:19:26.399Z,43.4272
2019-05-06T12:20:30.318Z,42.5101
2019-05-06T12:21:33.294Z,43.6698
2019-05-06T12:22:36.315Z,44.0894
2019-05-06T12:23:39.324Z,42.5803
2019-05-06T12:24:43.308Z,43.3021
2019-05-06T12:25:46.467Z,45.1652
2019-05-06T12:26:49.363Z,44.6677
2019-05-06T12:27:53.301Z,44.2420
2019-05-06T12:28:56.286Z,44.7486
2019-05-06T12:30:00.345Z,41.7609
2019-05-06T12:31:03.306Z,40.0565
2019-05-06T12:32:07.309Z,43.2258
2019-05-06T12:33:10.299Z,44.4526
2019-05-06T12:34:14.764Z,42.9740
2019-05-06T12:35:18.319Z,44.5945
2019-05-06T12:36:21.312Z,45.6107
2019-05-06T12:37:25.318Z,47.8080
2019-05-06T12:38:30.839Z,46.9825
2019-05-06T12:39:35.297Z,46.9871
2019-05-06T12:40:38.355Z,45.2674
2019-05-06T12:41:43.059Z,44.2100
2019-05-06T12:42:47.351Z,44.1810
2019-05-06T12:43:50.329Z,44.7913
2019-05-06T12:44:54.327Z,46.9322
2019-05-06T12:45:57.327Z,44.7211
2019-05-06T12:47:03.340Z,45.7145
2019-05-06T12:48:07.283Z,47.1473
2019-05-06T12:49:12.585Z,45.7481
2019-05-06T12:50:16.299Z,47.0603
2019-05-06T12:51:19.367Z,46.4759
2019-05-06T12:52:23.367Z,46.2013
2019-05-06T12:53:26.319Z,47.8492
2019-05-06T12:54:30.313Z,47.3320